createdAt,value
2018-03-27T00:00:08.986Z,1019.46
2018-03-27T00:01:08.969Z,1019.42
2018-03-27T00:02:09.077Z,1019.46
2018-03-27T00:03:08.968Z,1019.46
2018-03-27T00:04:08.970Z,1019.48
2018-03-27T00:05:09.023Z,1019.44
2018-03-27T00:06:08.969Z,1019.46
2018-03-27T00:07:09.046Z,1019.48
2018-03-27T00:08:09.013Z,1019.45
2018-03-27T00:09:08.974Z,1019.46
2018-03-27T00:10:08.965Z,1019.49
2018-03-27T00:11:09.050Z,1019.45
2018-03-27T00:12:08.974Z,1019.46
2018-03-27T00:13:08.972Z,1019.43
2018-03-27T00:14:09.012Z,1019.43
2018-03-27T00:15:08.949Z,1019.38
2018-03-27T00:16:08.972Z,1019.38
2018-03-27T00:17:12.652Z,1019.37
2018-03-27T00:18:09.128Z,1019.39
2018-03-27T00:19:09.066Z,1019.38
2018-03-27T00:20:09.062Z,1019.36
2018-03-27T00:21:09.070Z,1019.38
2018-03-27T00:22:09.067Z,1019.35
2018-03-27T00:23:09.053Z,1019.35
2018-03-27T00:24:09.055Z,1019.36
2018-03-27T00:25:09.062Z,1019.37
2018-03-27T00:26:09.052Z,1019.4
2018-03-27T00:27:09.052Z,1019.42
2018-03-27T00:28:09.061Z,1019.43
2018-03-27T00:29:09.044Z,1019.46
2018-03-27T00:30:09.047Z,1019.41
2018-03-27T00:31:09.055Z,1019.47
2018-03-27T00:32:09.117Z,1019.49
2018-03-27T00:33:09.049Z,1019.42
2018-03-27T00:34:09.054Z,1019.43
2018-03-27T00:35:09.032Z,1019.39
2018-03-27T00:36:09.027Z,1019.44
2018-03-27T00:37:09.064Z,1019.4
2018-03-27T00:38:09.065Z,1019.39
2018-03-27T00:39:09.031Z,1019.42
2018-03-27T00:40:09.039Z,1019.38
2018-03-27T00:41:09.212Z,1019.41
2018-03-27T00:42:09.038Z,1019.4
2018-03-27T00:43:09.011Z,1019.4
2018-03-27T00:44:09.031Z,1019.36
2018-03-27T00:45:09.047Z,1019.42
2018-03-27T00:46:09.028Z,1019.4
2018-03-27T00:47:09.040Z,1019.39
2018-03-27T00:48:09.048Z,1019.41
2018-03-27T00:49:09.043Z,1019.43
2018-03-27T00:50:09.042Z,1019.43
2018-03-27T00:51:09.052Z,1019.42
2018-03-27T00:52:09.050Z,1019.47
2018-03-27T00:53:09.032Z,1019.43
2018-03-27T00:54:09.049Z,1019.42
2018-03-27T00:55:09.030Z,1019.42
2018-03-27T00:56:09.047Z,1019.42
2018-03-27T00:57:09.026Z,1019.44
2018-03-27T00:58:09.049Z,1019.43
2018-03-27T00:59:09.025Z,1019.45
2018-03-27T01:00:09.055Z,1019.42
2018-03-27T01:01:09.034Z,1019.42
2018-03-27T01:02:09.055Z,1019.44
2018-03-27T01:03:09.077Z,1019.41
2018-03-27T01:04:09.028Z,1019.4
2018-03-27T01:05:09.039Z,1019.42
2018-03-27T01:06:09.006Z,1019.42
2018-03-27T01:07:09.031Z,1019.39
2018-03-27T01:08:09.094Z,1019.46
2018-03-27T01:09:09.057Z,1019.42
2018-03-27T01:10:09.038Z,1019.45
2018-03-27T01:11:09.041Z,1019.48
2018-03-27T01:12:09.026Z,1019.45
2018-03-27T01:13:09.035Z,1019.44
2018-03-27T01:14:09.029Z,1019.46
2018-03-27T01:15:09.048Z,1019.4
2018-03-27T01:16:09.017Z,1019.43
2018-03-27T01:17:09.136Z,1019.43
2018-03-27T01:18:09.144Z,1019.43
2018-03-27T01:19:09.023Z,1019.5
2018-03-27T01:20:09.030Z,1019.49
2018-03-27T01:21:09.019Z,1019.5
2018-03-27T01:22:09.029Z,1019.49
2018-03-27T01:23:09.033Z,1019.49
2018-03-27T01:24:09.059Z,1019.49
2018-03-27T01:25:09.036Z,1019.48
2018-03-27T01:26:09.071Z,1019.48
2018-03-27T01:27:09.058Z,1019.5
2018-03-27T01:28:09.046Z,1019.49
2018-03-27T01:29:09.040Z,1019.45
2018-03-27T01:30:09.022Z,1019.43
2018-03-27T01:31:09.021Z,1019.45
2018-03-27T01:32:09.034Z,1019.44
2018-03-27T01:33:09.015Z,1019.45
2018-03-27T01:34:09.020Z,1019.47
2018-03-27T01:35:09.030Z,1019.43
2018-03-27T01:36:09.018Z,1019.43
2018-03-27T01:37:09.020Z,1019.47
2018-03-27T01:38:09.027Z,1019.5
2018-03-27T01:39:09.083Z,1019.5
2018-03-27T01:40:09.024Z,1019.52
2018-03-27T01:41:09.025Z,1019.48
2018-03-27T01:42:09.037Z,1019.5
2018-03-27T01:43:09.033Z,1019.46
2018-03-27T01:44:09.025Z,1019.49
2018-03-27T01:45:09.028Z,1019.45
2018-03-27T01:46:09.006Z,1019.42
2018-03-27T01:47:09.023Z,1019.47
2018-03-27T01:48:09.040Z,1019.48
2018-03-27T01:49:09.035Z,1019.5
2018-03-27T01:50:09.036Z,1019.46
2018-03-27T01:51:09.009Z,1019.47
2018-03-27T01:52:09.011Z,1019.46
2018-03-27T01:53:09.020Z,1019.42
2018-03-27T01:54:09.026Z,1019.4
2018-03-27T01:55:08.847Z,1019.4
2018-03-27T01:56:09.026Z,1019.38
2018-03-27T01:57:09.005Z,1019.35
2018-03-27T01:58:09.006Z,1019.38
2018-03-27T01:59:09.050Z,1019.38
2018-03-27T02:00:09.002Z,1019.39
2018-03-27T02:01:09.028Z,1019.38
2018-03-27T02:02:09.021Z,1019.37
2018-03-27T02:03:09.028Z,1019.32
2018-03-27T02:04:09.096Z,1019.33
2018-03-27T02:05:09.140Z,1019.3
2018-03-27T02:06:09.017Z,1019.35
2018-03-27T02:07:09.013Z,1019.29
2018-03-27T02:08:09.001Z,1019.29
2018-03-27T02:09:09.094Z,1019.31
2018-03-27T02:10:09.014Z,1019.33
2018-03-27T02:11:09.009Z,1019.28
2018-03-27T02:12:09.036Z,1019.29
2018-03-27T02:13:09.020Z,1019.29
2018-03-27T02:14:09.016Z,1019.28
2018-03-27T02:15:09.009Z,1019.25
2018-03-27T02:16:09.011Z,1019.24
2018-03-27T02:17:09.012Z,1019.26
2018-03-27T02:18:09.015Z,1019.23
2018-03-27T02:19:09.027Z,1019.24
2018-03-27T02:20:09.023Z,1019.22
2018-03-27T02:21:09.011Z,1019.22
2018-03-27T02:22:08.998Z,1019.21
2018-03-27T02:23:09.012Z,1019.24
2018-03-27T02:24:09.014Z,1019.26
2018-03-27T02:25:09.014Z,1019.28
2018-03-27T02:26:09.013Z,1019.25
2018-03-27T02:27:09.002Z,1019.25
2018-03-27T02:28:09.009Z,1019.21
2018-03-27T02:29:09.037Z,1019.24
2018-03-27T02:30:09.026Z,1019.22
2018-03-27T02:31:09.021Z,1019.19
2018-03-27T02:32:09.014Z,1019.19
2018-03-27T02:33:08.998Z,1019.18
2018-03-27T02:34:09.022Z,1019.22
2018-03-27T02:35:09.034Z,1019.21
2018-03-27T02:36:09.112Z,1019.2
2018-03-27T02:37:09.052Z,1019.19
2018-03-27T02:38:09.010Z,1019.23
2018-03-27T02:39:09.031Z,1019.19
2018-03-27T02:40:09.046Z,1019.15
2018-03-27T02:41:09.013Z,1019.15
2018-03-27T02:42:08.997Z,1019.11
2018-03-27T02:43:08.992Z,1019.14
2018-03-27T02:44:09.005Z,1019.1
2018-03-27T02:45:09.034Z,1019.09
2018-03-27T02:46:09.073Z,1019.09
2018-03-27T02:47:09.020Z,1019.14
2018-03-27T02:48:09.030Z,1019.15
2018-03-27T02:49:09.012Z,1019.16
2018-03-27T02:50:09.034Z,1019.19
2018-03-27T02:51:09.001Z,1019.17
2018-03-27T02:52:09.018Z,1019.19
2018-03-27T02:53:08.999Z,1019.22
2018-03-27T02:54:08.995Z,1019.2
2018-03-27T02:55:09.006Z,1019.17
2018-03-27T02:56:09.003Z,1019.19
2018-03-27T02:57:08.996Z,1019.21
2018-03-27T02:58:08.995Z,1019.18
2018-03-27T02:59:09.010Z,1019.15
2018-03-27T03:00:09.042Z,1019.13
2018-03-27T03:01:08.991Z,1019.17
2018-03-27T03:02:09.022Z,1019.19
2018-03-27T03:03:09.009Z,1019.12
2018-03-27T03:04:09.019Z,1019.16
2018-03-27T03:05:09.033Z,1019.16
2018-03-27T03:06:09.001Z,1019.12
2018-03-27T03:07:08.991Z,1019.19
2018-03-27T03:08:08.973Z,1019.15
2018-03-27T03:09:09.020Z,1019.18
2018-03-27T03:10:09.072Z,1019.18
2018-03-27T03:11:08.994Z,1019.16
2018-03-27T03:12:08.986Z,1019.23
2018-03-27T03:13:08.979Z,1019.2
2018-03-27T03:14:08.998Z,1019.17
2018-03-27T03:15:08.979Z,1019.16
2018-03-27T03:16:08.977Z,1019.12
2018-03-27T03:17:08.989Z,1019.12
2018-03-27T03:18:09.091Z,1019.11
2018-03-27T03:19:09.210Z,1019.06
2018-03-27T03:20:09.015Z,1019.09
2018-03-27T03:21:08.987Z,1019.11
2018-03-27T03:22:09.110Z,1019.09
2018-03-27T03:23:08.976Z,1019.08
2018-03-27T03:24:08.978Z,1019.12
2018-03-27T03:25:09.257Z,1019.11
2018-03-27T03:26:08.990Z,1019.06
2018-03-27T03:27:09.006Z,1019.1
2018-03-27T03:28:08.997Z,1019.05
2018-03-27T03:29:08.996Z,1019.07
2018-03-27T03:30:09.268Z,1019.05
2018-03-27T03:31:08.990Z,1019.05
2018-03-27T03:32:08.975Z,1019.08
2018-03-27T03:33:08.984Z,1019.09
2018-03-27T03:34:08.970Z,1019.09
2018-03-27T03:35:09.020Z,1019.06
2018-03-27T03:36:08.989Z,1019.06
2018-03-27T03:37:08.980Z,1019.08
2018-03-27T03:38:08.996Z,1019.04
2018-03-27T03:39:08.987Z,1019.08
2018-03-27T03:40:08.976Z,1019.08
2018-03-27T03:41:09.027Z,1019.05
2018-03-27T03:42:08.987Z,1019.1
2018-03-27T03:43:08.965Z,1019.07
2018-03-27T03:44:08.985Z,1019.07
2018-03-27T03:45:09.009Z,1019.09
2018-03-27T03:46:09.003Z,1019.07
2018-03-27T03:47:08.982Z,1019.09
2018-03-27T03:48:08.969Z,1019.11
2018-03-27T03:49:08.979Z,1019.08
2018-03-27T03:50:08.977Z,1019.07
2018-03-27T03:51:08.984Z,1019.08
2018-03-27T03:52:08.982Z,1019.08
2018-03-27T03:53:09.130Z,1019.08
2018-03-27T03:54:08.981Z,1019.04
2018-03-27T03:55:08.996Z,1019.07
2018-03-27T03:56:08.975Z,1019.03
2018-03-27T03:57:08.970Z,1019.04
2018-03-27T03:58:08.973Z,1019.01
2018-03-27T03:59:08.974Z,1019.03
2018-03-27T04:00:08.989Z,1019.02
2018-03-27T04:01:08.977Z,1019.01
2018-03-27T04:02:08.986Z,1019.01
2018-03-27T04:03:08.975Z,1018.99
2018-03-27T04:04:08.962Z,1018.97
2018-03-27T04:05:08.995Z,1018.97
2018-03-27T04:06:08.963Z,1018.95
2018-03-27T04:07:08.967Z,1018.93
2018-03-27T04:08:08.972Z,1018.9
2018-03-27T04:09:09.019Z,1018.94
2018-03-27T04:10:08.990Z,1018.91
2018-03-27T04:11:09.040Z,1018.93
2018-03-27T04:12:08.959Z,1018.93
2018-03-27T04:13:08.975Z,1018.9
2018-03-27T04:14:08.992Z,1018.9
2018-03-27T04:15:09.021Z,1018.88
2018-03-27T04:16:08.977Z,1018.87
2018-03-27T04:17:08.961Z,1018.92
2018-03-27T04:18:08.969Z,1018.88
2018-03-27T04:19:08.959Z,1018.89
2018-03-27T04:20:08.987Z,1018.94
2018-03-27T04:21:08.990Z,1018.95
2018-03-27T04:22:08.974Z,1019
2018-03-27T04:23:08.996Z,1019
2018-03-27T04:24:08.977Z,1019.03
2018-03-27T04:25:08.993Z,1019.06
2018-03-27T04:26:09.153Z,1019.06
2018-03-27T04:27:08.974Z,1019.04
2018-03-27T04:28:08.974Z,1019
2018-03-27T04:29:08.968Z,1019.06
2018-03-27T04:30:09.013Z,1018.95
2018-03-27T04:31:09.016Z,1018.96
2018-03-27T04:32:08.984Z,1018.97
2018-03-27T04:33:08.977Z,1018.94
2018-03-27T04:34:08.964Z,1018.97
2018-03-27T04:35:08.972Z,1018.96
2018-03-27T04:36:08.955Z,1018.95
2018-03-27T04:37:08.943Z,1018.9
2018-03-27T04:38:08.956Z,1018.94
2018-03-27T04:39:08.951Z,1018.99
2018-03-27T04:40:08.966Z,1018.98
2018-03-27T04:41:08.964Z,1019.03
2018-03-27T04:42:09.013Z,1018.99
2018-03-27T04:43:08.911Z,1019
2018-03-27T04:44:08.961Z,1019.03
2018-03-27T04:45:08.969Z,1018.98
2018-03-27T04:46:08.956Z,1018.99
2018-03-27T04:47:08.968Z,1018.94
2018-03-27T04:48:08.979Z,1018.93
2018-03-27T04:49:08.949Z,1018.92
2018-03-27T04:50:08.986Z,1018.91
2018-03-27T04:51:08.956Z,1018.93
2018-03-27T04:52:09.008Z,1018.91
2018-03-27T04:53:08.963Z,1018.92
2018-03-27T04:54:08.963Z,1018.9
2018-03-27T04:55:08.995Z,1018.9
2018-03-27T04:56:08.946Z,1018.92
2018-03-27T04:57:08.947Z,1018.89
2018-03-27T04:58:08.953Z,1018.88
2018-03-27T04:59:08.955Z,1018.85
2018-03-27T05:00:08.957Z,1018.8
2018-03-27T05:01:08.965Z,1018.81
2018-03-27T05:02:08.970Z,1018.81
2018-03-27T05:03:08.960Z,1018.79
2018-03-27T05:04:08.975Z,1018.79
2018-03-27T05:05:08.959Z,1018.83
2018-03-27T05:06:08.964Z,1018.81
2018-03-27T05:07:09.018Z,1018.81
2018-03-27T05:08:08.963Z,1018.79
2018-03-27T05:09:08.952Z,1018.78
2018-03-27T05:10:08.962Z,1018.78
2018-03-27T05:11:08.984Z,1018.76
2018-03-27T05:12:08.949Z,1018.78
2018-03-27T05:13:09.173Z,1018.77
2018-03-27T05:14:08.952Z,1018.76
2018-03-27T05:15:08.984Z,1018.8
2018-03-27T05:16:08.969Z,1018.73
2018-03-27T05:17:08.985Z,1018.73
2018-03-27T05:18:08.956Z,1018.73
2018-03-27T05:19:09.069Z,1018.69
2018-03-27T05:20:09.041Z,1018.72
2018-03-27T05:21:08.984Z,1018.71
2018-03-27T05:22:08.958Z,1018.74
2018-03-27T05:23:08.968Z,1018.78
2018-03-27T05:24:09.008Z,1018.78
2018-03-27T05:25:08.942Z,1018.87
2018-03-27T05:26:08.982Z,1018.77
2018-03-27T05:27:08.959Z,1018.81
2018-03-27T05:28:08.974Z,1018.78
2018-03-27T05:29:08.974Z,1018.77
2018-03-27T05:30:08.949Z,1018.77
2018-03-27T05:31:09.003Z,1018.81
2018-03-27T05:32:08.965Z,1018.82
2018-03-27T05:33:08.959Z,1018.81
2018-03-27T05:34:08.947Z,1018.82
2018-03-27T05:35:08.960Z,1018.81
2018-03-27T05:36:08.942Z,1018.79
2018-03-27T05:37:08.958Z,1018.82
2018-03-27T05:38:08.956Z,1018.81
2018-03-27T05:39:08.968Z,1018.81
2018-03-27T05:40:08.976Z,1018.82
2018-03-27T05:41:08.950Z,1018.81
2018-03-27T05:42:09.022Z,1018.79
2018-03-27T05:43:08.956Z,1018.78
2018-03-27T05:44:09.005Z,1018.8
2018-03-27T05:45:08.997Z,1018.78
2018-03-27T05:46:08.944Z,1018.83
2018-03-27T05:47:08.945Z,1018.86
2018-03-27T05:48:08.990Z,1018.87
2018-03-27T05:49:08.950Z,1018.84
2018-03-27T05:50:08.957Z,1018.82
2018-03-27T05:51:08.999Z,1018.85
2018-03-27T05:52:08.785Z,1018.83
2018-03-27T05:53:08.942Z,1018.87
2018-03-27T05:54:08.941Z,1018.82
2018-03-27T05:55:08.958Z,1018.84
2018-03-27T05:56:09.091Z,1018.84
2018-03-27T05:57:08.941Z,1018.83
2018-03-27T05:58:08.944Z,1018.81
2018-03-27T05:59:08.944Z,1018.82
2018-03-27T06:00:08.925Z,1018.82
2018-03-27T06:01:08.947Z,1018.82
2018-03-27T06:02:08.936Z,1018.82
2018-03-27T06:03:08.951Z,1018.84
2018-03-27T06:04:08.939Z,1018.88
2018-03-27T06:05:09.133Z,1018.87
2018-03-27T06:06:08.930Z,1018.91
2018-03-27T06:07:08.916Z,1018.86
2018-03-27T06:08:08.942Z,1018.84
2018-03-27T06:09:08.944Z,1018.88
2018-03-27T06:10:08.923Z,1018.85
2018-03-27T06:11:08.931Z,1018.84
2018-03-27T06:12:08.928Z,1018.82
2018-03-27T06:13:08.966Z,1018.86
2018-03-27T06:14:08.989Z,1018.91
2018-03-27T06:15:08.935Z,1018.9
2018-03-27T06:16:08.975Z,1018.86
2018-03-27T06:17:08.949Z,1018.87
2018-03-27T06:18:08.935Z,1018.9
2018-03-27T06:19:08.921Z,1018.89
2018-03-27T06:20:08.952Z,1018.9
2018-03-27T06:21:08.944Z,1018.88
2018-03-27T06:22:08.929Z,1018.91
2018-03-27T06:23:08.930Z,1018.93
2018-03-27T06:24:08.925Z,1018.89
2018-03-27T06:25:08.936Z,1018.89
2018-03-27T06:26:08.944Z,1018.92
2018-03-27T06:27:08.935Z,1018.93
2018-03-27T06:28:08.925Z,1018.95
2018-03-27T06:29:08.956Z,1018.98
2018-03-27T06:30:08.938Z,1018.99
2018-03-27T06:31:08.964Z,1019
2018-03-27T06:32:08.918Z,1019.03
2018-03-27T06:33:08.936Z,1019.05
2018-03-27T06:34:08.921Z,1019.06
2018-03-27T06:35:08.997Z,1019.06
2018-03-27T06:36:08.922Z,1019.08
2018-03-27T06:37:08.932Z,1019.05
2018-03-27T06:38:08.937Z,1019.06
2018-03-27T06:39:08.919Z,1019.06
2018-03-27T06:40:08.923Z,1019.07
2018-03-27T06:41:08.932Z,1019.13
2018-03-27T06:42:09.186Z,1019.09
2018-03-27T06:43:08.956Z,1019.11
2018-03-27T06:44:08.917Z,1019.08
2018-03-27T06:45:09.962Z,1019.09
2018-03-27T06:46:08.950Z,1019.1
2018-03-27T06:47:08.941Z,1019.1
2018-03-27T06:48:08.981Z,1019.03
2018-03-27T06:49:08.921Z,1019.07
2018-03-27T06:50:08.927Z,1019.01
2018-03-27T06:51:08.904Z,1019.05
2018-03-27T06:52:08.913Z,1019.02
2018-03-27T06:53:08.924Z,1019.05
2018-03-27T06:54:08.938Z,1019.06
2018-03-27T06:55:08.924Z,1019.01
2018-03-27T06:56:08.927Z,1019.03
2018-03-27T06:57:08.951Z,1018.96
2018-03-27T06:58:08.955Z,1018.96
2018-03-27T06:59:09.045Z,1018.96
2018-03-27T07:00:08.936Z,1018.92
2018-03-27T07:01:08.907Z,1018.98
2018-03-27T07:02:08.934Z,1018.93
2018-03-27T07:03:08.959Z,1018.94
2018-03-27T07:04:08.936Z,1018.9
2018-03-27T07:05:08.950Z,1018.85
2018-03-27T07:06:09.009Z,1018.86
2018-03-27T07:07:08.931Z,1018.87
2018-03-27T07:08:08.960Z,1018.84
2018-03-27T07:09:08.958Z,1018.85
2018-03-27T07:10:08.991Z,1018.81
2018-03-27T07:11:08.956Z,1018.77
2018-03-27T07:12:08.949Z,1018.8
2018-03-27T07:13:09.016Z,1018.71
2018-03-27T07:14:09.003Z,1018.73
2018-03-27T07:15:08.994Z,1018.76
2018-03-27T07:16:09.044Z,1018.76
2018-03-27T07:17:08.926Z,1018.73
2018-03-27T07:18:09.024Z,1018.76
2018-03-27T07:19:08.951Z,1018.71
2018-03-27T07:20:09.038Z,1018.76
2018-03-27T07:21:08.994Z,1018.76
2018-03-27T07:22:08.950Z,1018.75
2018-03-27T07:23:08.925Z,1018.73
2018-03-27T07:24:08.925Z,1018.74
2018-03-27T07:25:08.940Z,1018.71
2018-03-27T07:26:08.908Z,1018.71
2018-03-27T07:27:08.902Z,1018.71
2018-03-27T07:28:08.915Z,1018.71
2018-03-27T07:29:08.896Z,1018.7
2018-03-27T07:30:08.951Z,1018.75
2018-03-27T07:31:08.911Z,1018.75
2018-03-27T07:32:08.954Z,1018.73
2018-03-27T07:33:08.942Z,1018.76
2018-03-27T07:34:08.970Z,1018.73
2018-03-27T07:35:08.908Z,1018.76
2018-03-27T07:36:08.900Z,1018.73
2018-03-27T07:37:08.897Z,1018.72
2018-03-27T07:38:08.932Z,1018.75
2018-03-27T07:39:08.980Z,1018.73
2018-03-27T07:40:08.976Z,1018.73
2018-03-27T07:41:08.959Z,1018.78
2018-03-27T07:42:08.922Z,1018.76
2018-03-27T07:43:08.888Z,1018.73
2018-03-27T07:44:08.947Z,1018.71
2018-03-27T07:45:08.922Z,1018.7
2018-03-27T07:46:08.901Z,1018.77
2018-03-27T07:47:08.948Z,1018.76
2018-03-27T07:48:08.897Z,1018.78
2018-03-27T07:49:08.935Z,1018.76
2018-03-27T07:50:08.933Z,1018.75
2018-03-27T07:51:08.902Z,1018.75
2018-03-27T07:52:08.924Z,1018.77
2018-03-27T07:53:08.906Z,1018.73
2018-03-27T07:54:08.910Z,1018.77
2018-03-27T07:55:08.916Z,1018.74
2018-03-27T07:56:08.896Z,1018.73
2018-03-27T07:57:08.903Z,1018.74
2018-03-27T07:58:08.904Z,1018.73
2018-03-27T07:59:08.933Z,1018.71
2018-03-27T08:00:08.900Z,1018.69
2018-03-27T08:01:08.917Z,1018.67
2018-03-27T08:02:08.906Z,1018.65
2018-03-27T08:03:08.907Z,1018.65
2018-03-27T08:04:08.897Z,1018.66
2018-03-27T08:05:08.843Z,1018.67
2018-03-27T08:06:08.945Z,1018.65
2018-03-27T08:07:08.890Z,1018.61
2018-03-27T08:08:08.904Z,1018.65
2018-03-27T08:09:08.903Z,1018.58
2018-03-27T08:10:08.897Z,1018.58
2018-03-27T08:11:09.196Z,1018.59
2018-03-27T08:12:08.951Z,1018.59
2018-03-27T08:13:08.911Z,1018.55
2018-03-27T08:14:08.875Z,1018.61
2018-03-27T08:15:08.907Z,1018.53
2018-03-27T08:16:08.900Z,1018.54
2018-03-27T08:17:08.856Z,1018.54
2018-03-27T08:18:08.940Z,1018.54
2018-03-27T08:19:08.885Z,1018.52
2018-03-27T08:20:08.915Z,1018.51
2018-03-27T08:21:08.917Z,1018.47
2018-03-27T08:22:08.898Z,1018.49
2018-03-27T08:23:08.918Z,1018.46
2018-03-27T08:24:09.344Z,1018.43
2018-03-27T08:25:08.887Z,1018.43
2018-03-27T08:26:08.892Z,1018.45
2018-03-27T08:27:08.902Z,1018.42
2018-03-27T08:28:08.925Z,1018.41
2018-03-27T08:29:08.912Z,1018.42
2018-03-27T08:30:08.895Z,1018.42
2018-03-27T08:31:08.909Z,1018.41
2018-03-27T08:32:08.896Z,1018.4
2018-03-27T08:33:08.931Z,1018.4
2018-03-27T08:34:08.893Z,1018.37
2018-03-27T08:35:08.884Z,1018.38
2018-03-27T08:36:08.880Z,1018.36
2018-03-27T08:37:08.885Z,1018.36
2018-03-27T08:38:08.878Z,1018.4
2018-03-27T08:39:09.077Z,1018.38
2018-03-27T08:40:08.927Z,1018.37
2018-03-27T08:41:08.882Z,1018.38
2018-03-27T08:42:09.640Z,1018.43
2018-03-27T08:43:08.888Z,1018.39
2018-03-27T08:44:08.883Z,1018.37
2018-03-27T08:45:08.893Z,1018.4
2018-03-27T08:46:12.266Z,1018.37
2018-03-27T08:47:08.885Z,1018.34
2018-03-27T08:48:08.997Z,1018.32
2018-03-27T08:49:08.881Z,1018.34
2018-03-27T08:50:08.932Z,1018.34
2018-03-27T08:51:08.890Z,1018.33
2018-03-27T08:52:12.422Z,1018.33
2018-03-27T08:53:08.883Z,1018.33
2018-03-27T08:54:09.020Z,1018.31
2018-03-27T08:55:08.924Z,1018.27
2018-03-27T08:56:09.070Z,1018.25
2018-03-27T08:57:08.882Z,1018.26
2018-03-27T08:58:08.908Z,1018.22
2018-03-27T08:59:08.921Z,1018.24
2018-03-27T09:00:08.882Z,1018.25
2018-03-27T09:01:08.875Z,1018.24
2018-03-27T09:02:08.882Z,1018.26
2018-03-27T09:03:08.876Z,1018.23
2018-03-27T09:04:08.879Z,1018.24
2018-03-27T09:05:08.889Z,1018.23
2018-03-27T09:06:08.862Z,1018.23
2018-03-27T09:07:08.877Z,1018.21
2018-03-27T09:08:08.861Z,1018.2
2018-03-27T09:09:08.971Z,1018.17
2018-03-27T09:10:08.872Z,1018.22
2018-03-27T09:11:08.874Z,1018.2
2018-03-27T09:12:08.929Z,1018.21
2018-03-27T09:13:09.164Z,1018.25
2018-03-27T09:14:08.885Z,1018.17
2018-03-27T09:15:08.986Z,1018.19
2018-03-27T09:16:09.040Z,1018.19
2018-03-27T09:17:08.885Z,1018.15
2018-03-27T09:18:08.881Z,1018.14
2018-03-27T09:19:08.929Z,1018.16
2018-03-27T09:20:08.879Z,1018.12
2018-03-27T09:21:08.990Z,1018.18
2018-03-27T09:22:08.980Z,1018.13
2018-03-27T09:23:08.865Z,1018.07
2018-03-27T09:24:08.916Z,1018.11
2018-03-27T09:25:08.889Z,1018.05
2018-03-27T09:26:08.886Z,1018.09
2018-03-27T09:27:08.865Z,1018.06
2018-03-27T09:28:08.888Z,1018.06
2018-03-27T09:29:08.875Z,1018.05
2018-03-27T09:30:08.872Z,1018.05
2018-03-27T09:31:08.882Z,1018.04
2018-03-27T09:32:08.885Z,1018.02
2018-03-27T09:33:08.888Z,1018.01
2018-03-27T09:34:08.873Z,1018.08
2018-03-27T09:35:08.868Z,1018.02
2018-03-27T09:36:08.871Z,1018.1
2018-03-27T09:37:08.883Z,1018.01
2018-03-27T09:38:08.879Z,1017.97
2018-03-27T09:39:09.070Z,1018.04
2018-03-27T09:40:08.866Z,1018.02
2018-03-27T09:41:08.871Z,1017.97
2018-03-27T09:42:08.866Z,1018.03
2018-03-27T09:43:08.876Z,1017.99
2018-03-27T09:44:08.869Z,1017.95
2018-03-27T09:45:08.864Z,1017.96
2018-03-27T09:46:08.868Z,1017.94
2018-03-27T09:47:08.867Z,1017.94
2018-03-27T09:48:08.935Z,1017.94
2018-03-27T09:49:08.944Z,1017.94
2018-03-27T09:50:08.873Z,1017.93
2018-03-27T09:51:08.906Z,1017.91
2018-03-27T09:52:08.887Z,1017.9
2018-03-27T09:53:08.863Z,1017.93
2018-03-27T09:54:08.900Z,1017.91
2018-03-27T09:55:08.870Z,1017.9
2018-03-27T09:56:08.864Z,1017.92
2018-03-27T09:57:08.864Z,1017.89
2018-03-27T09:58:08.861Z,1017.9
2018-03-27T09:59:08.882Z,1017.87
2018-03-27T10:00:08.874Z,1017.88
2018-03-27T10:01:08.858Z,1017.89
2018-03-27T10:02:08.861Z,1017.85
2018-03-27T10:03:08.867Z,1017.86
2018-03-27T10:04:08.868Z,1017.85
2018-03-27T10:05:08.864Z,1017.86
2018-03-27T10:06:08.871Z,1017.85
2018-03-27T10:07:08.889Z,1017.84
2018-03-27T10:08:08.861Z,1017.83
2018-03-27T10:09:08.891Z,1017.8
2018-03-27T10:10:08.870Z,1017.8
2018-03-27T10:11:08.922Z,1017.79
2018-03-27T10:12:08.894Z,1017.77
2018-03-27T10:13:08.865Z,1017.75
2018-03-27T10:14:08.877Z,1017.74
2018-03-27T10:15:08.853Z,1017.72
2018-03-27T10:16:08.853Z,1017.7
2018-03-27T10:17:08.867Z,1017.69
2018-03-27T10:18:08.864Z,1017.74
2018-03-27T10:19:08.876Z,1017.64
2018-03-27T10:20:08.993Z,1017.69
2018-03-27T10:21:08.871Z,1017.68
2018-03-27T10:22:08.975Z,1017.64
2018-03-27T10:23:08.911Z,1017.66
2018-03-27T10:24:08.874Z,1017.63
2018-03-27T10:25:08.843Z,1017.6
2018-03-27T10:26:08.952Z,1017.61
2018-03-27T10:27:08.881Z,1017.63
2018-03-27T10:28:08.856Z,1017.56
2018-03-27T10:29:08.884Z,1017.56
2018-03-27T10:30:08.843Z,1017.55
2018-03-27T10:31:08.871Z,1017.6
2018-03-27T10:32:08.874Z,1017.55
2018-03-27T10:33:08.927Z,1017.58
2018-03-27T10:34:08.873Z,1017.54
2018-03-27T10:35:08.847Z,1017.53
2018-03-27T10:36:08.857Z,1017.53
2018-03-27T10:37:08.867Z,1017.51
2018-03-27T10:38:08.851Z,1017.52
2018-03-27T10:39:08.859Z,1017.45
2018-03-27T10:40:08.868Z,1017.46
2018-03-27T10:41:08.842Z,1017.45
2018-03-27T10:42:08.886Z,1017.47
2018-03-27T10:43:08.856Z,1017.44
2018-03-27T10:44:08.874Z,1017.42
2018-03-27T10:45:08.860Z,1017.46
2018-03-27T10:46:08.893Z,1017.41
2018-03-27T10:47:08.865Z,1017.38
2018-03-27T10:48:08.845Z,1017.39
2018-03-27T10:49:08.911Z,1017.37
2018-03-27T10:50:11.048Z,1017.31
2018-03-27T10:51:08.886Z,1017.33
2018-03-27T10:51:41.274Z,1017.22
2018-03-27T10:52:41.275Z,1017.22
2018-03-27T10:53:41.251Z,1017.24
2018-03-27T10:54:41.284Z,1017.25
2018-03-27T10:55:41.374Z,1017.24
2018-03-27T10:56:41.256Z,1017.17
2018-03-27T10:57:41.253Z,1017.16
2018-03-27T10:58:41.252Z,1017.17
2018-03-27T10:59:41.302Z,1017.13
2018-03-27T11:00:41.238Z,1017.13
2018-03-27T11:01:41.246Z,1017.12
2018-03-27T11:02:41.268Z,1017.14
2018-03-27T11:03:41.262Z,1017.16
2018-03-27T11:04:41.358Z,1017.18
2018-03-27T11:05:41.269Z,1017.13
2018-03-27T11:06:41.278Z,1017.15
2018-03-27T11:07:41.289Z,1017.1
2018-03-27T11:08:41.319Z,1017.08
2018-03-27T11:09:41.303Z,1017.07
2018-03-27T11:10:41.282Z,1017.05
2018-03-27T11:11:41.281Z,1017.05
2018-03-27T11:12:41.225Z,1016.96
2018-03-27T11:13:41.444Z,1016.98
2018-03-27T11:14:41.310Z,1016.99
2018-03-27T11:15:41.280Z,1017.02
2018-03-27T11:16:41.292Z,1016.96
2018-03-27T11:17:41.257Z,1016.98
2018-03-27T11:18:41.255Z,1016.98
2018-03-27T11:27:32.450Z,1016.85
2018-03-27T11:28:13.228Z,1016.86
2018-03-27T11:29:13.405Z,1016.82
2018-03-27T11:30:13.181Z,1016.81
2018-03-27T11:31:13.195Z,1016.8
2018-03-27T11:32:13.222Z,1016.75
2018-03-27T11:33:13.191Z,1016.75
2018-03-27T11:34:13.192Z,1016.77
2018-03-27T11:35:13.167Z,1016.7
2018-03-27T11:36:13.163Z,1016.71
2018-03-27T11:37:13.205Z,1016.68
2018-03-27T11:38:13.186Z,1016.7
2018-03-27T11:39:13.198Z,1016.66
2018-03-27T11:40:13.172Z,1016.66
2018-03-27T11:41:13.177Z,1016.61
2018-03-27T11:42:13.163Z,1016.63
2018-03-27T11:43:13.209Z,1016.62
2018-03-27T11:44:13.171Z,1016.58
2018-03-27T11:45:13.183Z,1016.54
2018-03-27T11:46:13.193Z,1016.55
2018-03-27T11:47:13.165Z,1016.58
2018-03-27T11:48:13.159Z,1016.49
2018-03-27T11:49:13.190Z,1016.47
2018-03-27T11:50:13.175Z,1016.46
2018-03-27T11:51:13.179Z,1016.51
2018-03-27T11:52:13.220Z,1016.45
2018-03-27T11:53:13.159Z,1016.41
2018-03-27T11:54:13.156Z,1016.38
2018-03-27T11:55:13.213Z,1016.37
2018-03-27T11:56:13.192Z,1016.33
2018-03-27T11:57:13.180Z,1016.3
2018-03-27T11:58:13.221Z,1016.32
2018-03-27T11:59:13.228Z,1016.3
2018-03-27T12:00:13.178Z,1016.32
2018-03-27T12:01:13.188Z,1016.24
2018-03-27T12:02:13.182Z,1016.22
2018-03-27T12:03:13.183Z,1016.22
2018-03-27T12:04:13.159Z,1016.18
2018-03-27T12:05:13.443Z,1016.18
2018-03-27T12:06:13.159Z,1016.21
2018-03-27T12:07:13.171Z,1016.15
2018-03-27T12:08:13.172Z,1016.07
2018-03-27T12:09:13.201Z,1016.09
2018-03-27T12:10:13.214Z,1016.05
2018-03-27T12:11:13.181Z,1015.98
2018-03-27T12:12:13.148Z,1015.96
2018-03-27T12:13:13.218Z,1015.97
2018-03-27T12:14:13.179Z,1015.9
2018-03-27T12:15:13.340Z,1015.91